West Chester, PA

2:12 AM EDT on July 30, 2016 (GMT -0400)
West Goshen - Cotswold Lane | | Change Station

Elev 456 ft 39.99 °N, 75.63 °W | Updated 57 minutes ago

Clear
Clear
75.0 °F
Feels Like 75 °F
N
0.0
Wind Variable Wind from ENE
Gusts 0.0 mph

Today
High -- | Low -- °F
--% Chance of Precip.
Yesterday
High -- | Low -- °F
Precip. -- in
Pressure 29.98 in
Visibility 3.0 miles
Clouds Clear
Heat Index 75 °F
Dew Point 70 °F
Humidity 83%
Rainfall 0.00 in
Snow Depth Not available.
5:59 AM 8:17 PM
Waning Crescent, 16% visible
METAR KMQS 300555Z AUTO 00000KT 3SM BR CLR 23/22 A2998 RMK AO2
Pressure 29.98 in
Visibility 3.0 miles
Clouds Clear
Heat Index 75 °F
Dew Point 70 °F
Humidity 83%
Rainfall 0.00 in
Snow Depth Not available.
5:59 AM 8:17 PM
Waning Crescent, 16% visible
METAR KMQS 300555Z AUTO 00000KT 3SM BR CLR 23/22 A2998 RMK AO2

10-Day Weather Forecast

Almanac

Astronomy

Jul. 30, 2016 Rise Set
Actual Time
Civil Twilight
Nautical Twilight
Astronomical Twilight
Moon
Length of Visible Light
Length of Day
Tomorrow will be .
, % of the Moon is Illuminated

Today's Extremes

State Highs State Lows

Community

WunderPhotos

Upload Photos

1,928,508 photos uploaded!

WunderBlog® & News

Nearby

Air Quality

  Air Quality AQ Index Pollutant
Not available.

Snow Depth

Station Depth Elevation

Earthquake Activity

City Distance Mag. Time & Date
Minimum magnitude displayed is 2.5.

Coastal Water Temperatures

Place Temperature

Stations

Nearby Weather Stations

Station Location Temp. Windchill Dew Point Humidity Wind Precip. Elev Updated Type
                   

Watches & Warnings

There are currently no watches in effect.